sensor_id;sensor_type;location;lat;lon;timestamp;temperature;humidity
43414;DHT22;29013;49.676;8.606;2022-09-12T00:01:18;16.3;99.9
43414;DHT22;29013;49.676;8.606;2022-09-12T00:06:55;16.2;99.9
43414;DHT22;29013;49.676;8.606;2022-09-12T00:12:44;16.2;99.9
43414;DHT22;29013;49.676;8.606;2022-09-12T00:18:22;16.2;99.9
43414;DHT22;29013;49.676;8.606;2022-09-12T00:23:43;16.1;99.9
43414;DHT22;29013;49.676;8.606;2022-09-12T00:29:11;16.0;99.9
43414;DHT22;29013;49.676;8.606;2022-09-12T00:34:44;15.9;99.9
43414;DHT22;29013;49.676;8.606;2022-09-12T00:40:24;15.9;99.9
43414;DHT22;29013;49.676;8.606;2022-09-12T00:45:50;15.9;99.9
43414;DHT22;29013;49.676;8.606;2022-09-12T00:51:16;15.9;99.9
43414;DHT22;29013;49.676;8.606;2022-09-12T00:56:40;15.8;99.9
43414;DHT22;29013;49.676;8.606;2022-09-12T01:02:27;15.6;99.9
43414;DHT22;29013;49.676;8.606;2022-09-12T01:08:01;15.7;99.9
43414;DHT22;29013;49.676;8.606;2022-09-12T01:13:31;15.7;99.9
43414;DHT22;29013;49.676;8.606;2022-09-12T01:19:04;15.6;99.9
43414;DHT22;29013;49.676;8.606;2022-09-12T01:24:50;15.6;99.9
43414;DHT22;29013;49.676;8.606;2022-09-12T01:30:40;15.6;99.9
43414;DHT22;29013;49.676;8.606;2022-09-12T01:42:14;15.7;99.9
43414;DHT22;29013;49.676;8.606;2022-09-12T01:47:39;15.6;99.9
43414;DHT22;29013;49.676;8.606;2022-09-12T01:53:25;15.5;99.9
43414;DHT22;29013;49.676;8.606;2022-09-12T01:58:53;15.6;99.9
43414;DHT22;29013;49.676;8.606;2022-09-12T02:04:20;15.5;99.9
43414;DHT22;29013;49.676;8.606;2022-09-12T02:09:59;15.4;99.9
43414;DHT22;29013;49.676;8.606;2022-09-12T02:15:29;15.4;99.9
43414;DHT22;29013;49.676;8.606;2022-09-12T02:20:54;15.3;99.9
43414;DHT22;29013;49.676;8.606;2022-09-12T02:26:20;15.3;99.9
43414;DHT22;29013;49.676;8.606;2022-09-12T02:31:45;15.2;99.9
43414;DHT22;29013;49.676;8.606;2022-09-12T02:37:22;15.2;99.9
43414;DHT22;29013;49.676;8.606;2022-09-12T02:42:34;15.1;99.9
43414;DHT22;29013;49.676;8.606;2022-09-12T02:47:59;15.1;99.9
43414;DHT22;29013;49.676;8.606;2022-09-12T02:53:22;15.1;99.9
43414;DHT22;29013;49.676;8.606;2022-09-12T02:58:53;15.1;99.9
43414;DHT22;29013;49.676;8.606;2022-09-12T03:04:34;15.0;99.9
43414;DHT22;29013;49.676;8.606;2022-09-12T03:10:04;15.0;99.9
43414;DHT22;29013;49.676;8.606;2022-09-12T03:15:45;15.0;99.9
43414;DHT22;29013;49.676;8.606;2022-09-12T03:21:17;15.0;99.9
43414;DHT22;29013;49.676;8.606;2022-09-12T03:26:41;15.0;99.9
43414;DHT22;29013;49.676;8.606;2022-09-12T03:32:10;14.9;99.9
43414;DHT22;29013;49.676;8.606;2022-09-12T03:37:39;14.9;99.9
43414;DHT22;29013;49.676;8.606;2022-09-12T03:43:06;14.8;99.9
43414;DHT22;29013;49.676;8.606;2022-09-12T03:48:37;14.8;99.9
43414;DHT22;29013;49.676;8.606;2022-09-12T03:54:14;14.6;99.9
43414;DHT22;29013;49.676;8.606;2022-09-12T04:05:29;14.7;99.9
43414;DHT22;29013;49.676;8.606;2022-09-12T04:10:53;14.6;99.9
43414;DHT22;29013;49.676;8.606;2022-09-12T04:16:22;14.5;99.9
43414;DHT22;29013;49.676;8.606;2022-09-12T04:21:48;14.3;99.9
43414;DHT22;29013;49.676;8.606;2022-09-12T04:27:14;14.1;99.9
43414;DHT22;29013;49.676;8.606;2022-09-12T04:32:48;14.0;99.9
43414;DHT22;29013;49.676;8.606;2022-09-12T04:38:13;13.9;99.9
43414;DHT22;29013;49.676;8.606;2022-09-12T04:43:38;13.8;99.9
43414;DHT22;29013;49.676;8.606;2022-09-12T04:49:06;13.8;99.9
43414;DHT22;29013;49.676;8.606;2022-09-12T04:54:37;13.8;99.9
43414;DHT22;29013;49.676;8.606;2022-09-12T05:12:10;16.7;99.9
43414;DHT22;29013;49.676;8.606;2022-09-12T05:17:31;15.7;99.9
43414;DHT22;29013;49.676;8.606;2022-09-12T05:22:58;14.8;99.9
43414;DHT22;29013;49.676;8.606;2022-09-12T05:28:27;14.3;99.9
43414;DHT22;29013;49.676;8.606;2022-09-12T05:33:51;14.1;99.9
43414;DHT22;29013;49.676;8.606;2022-09-12T05:39:17;14.0;99.9
43414;DHT22;29013;49.676;8.606;2022-09-12T05:44:44;13.9;99.9
43414;DHT22;29013;49.676;8.606;2022-09-12T05:50:11;13.8;99.9
43414;DHT22;29013;49.676;8.606;2022-09-12T05:55:37;13.8;99.9
43414;DHT22;29013;49.676;8.606;2022-09-12T06:01:11;13.9;99.9
43414;DHT22;29013;49.676;8.606;2022-09-12T06:06:31;14.0;99.9
43414;DHT22;29013;49.676;8.606;2022-09-12T06:11:56;14.1;99.9
43414;DHT22;29013;49.676;8.606;2022-09-12T06:17:23;14.1;99.9
43414;DHT22;29013;49.676;8.606;2022-09-12T06:22:53;14.2;99.9
43414;DHT22;29013;49.676;8.606;2022-09-12T06:28:14;14.2;99.9
43414;DHT22;29013;49.676;8.606;2022-09-12T06:33:36;14.4;99.9
43414;DHT22;29013;49.676;8.606;2022-09-12T06:38:58;14.5;99.9
43414;DHT22;29013;49.676;8.606;2022-09-12T06:44:22;14.6;99.9
43414;DHT22;29013;49.676;8.606;2022-09-12T06:49:49;14.8;99.9
43414;DHT22;29013;49.676;8.606;2022-09-12T06:55:11;15.1;99.9
43414;DHT22;29013;49.676;8.606;2022-09-12T07:00:39;15.4;99.9
43414;DHT22;29013;49.676;8.606;2022-09-12T07:06:10;15.7;99.9
43414;DHT22;29013;49.676;8.606;2022-09-12T07:11:35;16.1;99.9
43414;DHT22;29013;49.676;8.606;2022-09-12T07:17:02;16.5;99.9
43414;DHT22;29013;49.676;8.606;2022-09-12T07:22:30;16.9;99.9
43414;DHT22;29013;49.676;8.606;2022-09-12T07:27:57;17.3;99.9
43414;DHT22;29013;49.676;8.606;2022-09-12T07:33:23;17.7;99.9
43414;DHT22;29013;49.676;8.606;2022-09-12T07:38:52;18.0;99.9
43414;DHT22;29013;49.676;8.606;2022-09-12T07:44:11;18.5;99.9
43414;DHT22;29013;49.676;8.606;2022-09-12T07:49:34;18.9;99.9
43414;DHT22;29013;49.676;8.606;2022-09-12T07:55:03;19.2;99.9
43414;DHT22;29013;49.676;8.606;2022-09-12T08:00:31;19.3;99.9
43414;DHT22;29013;49.676;8.606;2022-09-12T08:06:06;19.5;99.9
43414;DHT22;29013;49.676;8.606;2022-09-12T08:11:32;19.8;99.9
43414;DHT22;29013;49.676;8.606;2022-09-12T08:16:54;20.2;99.9
43414;DHT22;29013;49.676;8.606;2022-09-12T08:22:16;20.5;99.9
43414;DHT22;29013;49.676;8.606;2022-09-12T08:27:45;20.8;99.9
43414;DHT22;29013;49.676;8.606;2022-09-12T08:33:07;21.1;99.9
43414;DHT22;29013;49.676;8.606;2022-09-12T08:38:34;21.3;99.9
43414;DHT22;29013;49.676;8.606;2022-09-12T08:49:34;21.7;99.9
43414;DHT22;29013;49.676;8.606;2022-09-12T08:55:02;21.7;99.3
43414;DHT22;29013;49.676;8.606;2022-09-12T09:00:29;21.9;99.4
43414;DHT22;29013;49.676;8.606;2022-09-12T09:05:54;21.9;99.9
43414;DHT22;29013;49.676;8.606;2022-09-12T09:11:28;22.1;99.9
43414;DHT22;29013;49.676;8.606;2022-09-12T09:16:48;22.4;98.6
43414;DHT22;29013;49.676;8.606;2022-09-12T09:22:17;22.7;98.6
43414;DHT22;29013;49.676;8.606;2022-09-12T09:27:47;22.7;97.3
43414;DHT22;29013;49.676;8.606;2022-09-12T09:33:17;22.7;98.4
43414;DHT22;29013;49.676;8.606;2022-09-12T09:38:47;22.9;98.4
43414;DHT22;29013;49.676;8.606;2022-09-12T09:44:13;23.3;96.6
43414;DHT22;29013;49.676;8.606;2022-09-12T09:49:41;23.7;96.4
43414;DHT22;29013;49.676;8.606;2022-09-12T09:55:13;23.9;95.4
43414;DHT22;29013;49.676;8.606;2022-09-12T10:00:39;24.0;94.7
43414;DHT22;29013;49.676;8.606;2022-09-12T10:06:20;24.3;94.5
43414;DHT22;29013;49.676;8.606;2022-09-12T10:11:41;24.3;92.5
43414;DHT22;29013;49.676;8.606;2022-09-12T10:17:22;24.2;92.8
43414;DHT22;29013;49.676;8.606;2022-09-12T10:22:31;24.3;93.5
43414;DHT22;29013;49.676;8.606;2022-09-12T10:27:57;24.2;92.9
43414;DHT22;29013;49.676;8.606;2022-09-12T10:33:18;24.4;93.6
43414;DHT22;29013;49.676;8.606;2022-09-12T10:38:41;24.7;90.9
43414;DHT22;29013;49.676;8.606;2022-09-12T10:44:13;24.9;90.3
43414;DHT22;29013;49.676;8.606;2022-09-12T10:49:31;24.7;88.8
43414;DHT22;29013;49.676;8.606;2022-09-12T10:54:53;24.8;90.6
43414;DHT22;29013;49.676;8.606;2022-09-12T11:00:17;25.4;86.5
43414;DHT22;29013;49.676;8.606;2022-09-12T11:05:52;25.5;82.6
43414;DHT22;29013;49.676;8.606;2022-09-12T11:11:27;25.8;80.2
43414;DHT22;29013;49.676;8.606;2022-09-12T11:16:54;26.2;79.3
43414;DHT22;29013;49.676;8.606;2022-09-12T11:22:26;26.1;77.9
43414;DHT22;29013;49.676;8.606;2022-09-12T11:28:14;26.1;79.5
43414;DHT22;29013;49.676;8.606;2022-09-12T11:33:42;26.6;75.7
43414;DHT22;29013;49.676;8.606;2022-09-12T11:39:13;26.6;78.3
43414;DHT22;29013;49.676;8.606;2022-09-12T11:44:36;26.6;75.6
43414;DHT22;29013;49.676;8.606;2022-09-12T11:49:58;26.0;76.7
43414;DHT22;29013;49.676;8.606;2022-09-12T11:55:26;25.4;78.4
43414;DHT22;29013;49.676;8.606;2022-09-12T12:00:54;25.7;77.1
43414;DHT22;29013;49.676;8.606;2022-09-12T12:06:20;26.2;76.0
43414;DHT22;29013;49.676;8.606;2022-09-12T12:11:46;26.2;74.3
43414;DHT22;29013;49.676;8.606;2022-09-12T12:17:17;26.3;75.0
43414;DHT22;29013;49.676;8.606;2022-09-12T12:22:40;26.3;74.6
43414;DHT22;29013;49.676;8.606;2022-09-12T12:28:06;26.4;72.6
43414;DHT22;29013;49.676;8.606;2022-09-12T12:33:53;26.4;73.1
43414;DHT22;29013;49.676;8.606;2022-09-12T12:51:35;26.7;72.2
43414;DHT22;29013;49.676;8.606;2022-09-12T12:57:16;26.7;72.0
43414;DHT22;29013;49.676;8.606;2022-09-12T13:02:47;26.1;70.9
43414;DHT22;29013;49.676;8.606;2022-09-12T13:08:09;25.8;74.6
43414;DHT22;29013;49.676;8.606;2022-09-12T13:13:37;26.2;74.2
43414;DHT22;29013;49.676;8.606;2022-09-12T13:19:05;26.2;72.1
43414;DHT22;29013;49.676;8.606;2022-09-12T13:24:27;25.9;72.8
43414;DHT22;29013;49.676;8.606;2022-09-12T13:30:06;26.2;70.9
43414;DHT22;29013;49.676;8.606;2022-09-12T13:35:31;26.3;69.5
43414;DHT22;29013;49.676;8.606;2022-09-12T13:41:00;26.2;71.5
43414;DHT22;29013;49.676;8.606;2022-09-12T13:46:27;26.3;68.6
43414;DHT22;29013;49.676;8.606;2022-09-12T13:51:57;26.3;67.1
43414;DHT22;29013;49.676;8.606;2022-09-12T13:57:32;26.3;63.8
43414;DHT22;29013;49.676;8.606;2022-09-12T14:02:56;26.2;67.0
43414;DHT22;29013;49.676;8.606;2022-09-12T14:08:21;25.9;68.9
43414;DHT22;29013;49.676;8.606;2022-09-12T14:13:51;25.9;67.4
43414;DHT22;29013;49.676;8.606;2022-09-12T14:19:16;26.0;67.3
43414;DHT22;29013;49.676;8.606;2022-09-12T14:24:43;26.0;67.5
43414;DHT22;29013;49.676;8.606;2022-09-12T14:30:19;25.9;66.3
43414;DHT22;29013;49.676;8.606;2022-09-12T14:35:42;26.0;65.5
43414;DHT22;29013;49.676;8.606;2022-09-12T14:41:09;25.9;64.7
43414;DHT22;29013;49.676;8.606;2022-09-12T14:46:36;25.7;65.5
43414;DHT22;29013;49.676;8.606;2022-09-12T14:52:01;25.6;65.5
43414;DHT22;29013;49.676;8.606;2022-09-12T14:57:35;25.7;64.3
43414;DHT22;29013;49.676;8.606;2022-09-12T15:03:19;25.5;65.1
43414;DHT22;29013;49.676;8.606;2022-09-12T15:08:43;25.5;65.3
43414;DHT22;29013;49.676;8.606;2022-09-12T15:14:13;25.4;67.0
43414;DHT22;29013;49.676;8.606;2022-09-12T15:19:40;25.5;64.4
43414;DHT22;29013;49.676;8.606;2022-09-12T15:25:10;25.3;64.6
43414;DHT22;29013;49.676;8.606;2022-09-12T15:30:32;25.2;63.1
43414;DHT22;29013;49.676;8.606;2022-09-12T15:36:04;25.1;65.1
43414;DHT22;29013;49.676;8.606;2022-09-12T15:41:25;25.2;65.0
43414;DHT22;29013;49.676;8.606;2022-09-12T15:46:47;25.0;65.4
43414;DHT22;29013;49.676;8.606;2022-09-12T15:52:14;25.0;65.4
43414;DHT22;29013;49.676;8.606;2022-09-12T15:57:42;24.9;65.8
43414;DHT22;29013;49.676;8.606;2022-09-12T16:03:04;24.8;66.5
43414;DHT22;29013;49.676;8.606;2022-09-12T16:08:31;24.6;66.2
43414;DHT22;29013;49.676;8.606;2022-09-12T16:13:56;24.6;68.1
43414;DHT22;29013;49.676;8.606;2022-09-12T16:19:24;24.6;64.5
43414;DHT22;29013;49.676;8.606;2022-09-12T16:24:47;24.5;67.6
43414;DHT22;29013;49.676;8.606;2022-09-12T16:30:14;24.4;68.5
43414;DHT22;29013;49.676;8.606;2022-09-12T16:35:40;24.4;68.2
43414;DHT22;29013;49.676;8.606;2022-09-12T16:41:09;24.3;68.3
43414;DHT22;29013;49.676;8.606;2022-09-12T16:46:34;24.2;70.4
43414;DHT22;29013;49.676;8.606;2022-09-12T16:52:00;24.0;71.5
43414;DHT22;29013;49.676;8.606;2022-09-12T16:57:28;23.7;75.4
43414;DHT22;29013;49.676;8.606;2022-09-12T17:02:53;23.5;73.9
43414;DHT22;29013;49.676;8.606;2022-09-12T17:08:20;23.4;76.3
43414;DHT22;29013;49.676;8.606;2022-09-12T17:13:49;23.1;75.3
43414;DHT22;29013;49.676;8.606;2022-09-12T17:19:15;23.0;77.5
43414;DHT22;29013;49.676;8.606;2022-09-12T17:24:41;22.7;79.4
43414;DHT22;29013;49.676;8.606;2022-09-12T17:30:11;22.4;78.1
43414;DHT22;29013;49.676;8.606;2022-09-12T17:35:34;22.4;79.8
43414;DHT22;29013;49.676;8.606;2022-09-12T17:41:04;22.1;81.5
43414;DHT22;29013;49.676;8.606;2022-09-12T17:46:31;21.9;83.2
43414;DHT22;29013;49.676;8.606;2022-09-12T17:51:56;21.9;83.6
43414;DHT22;29013;49.676;8.606;2022-09-12T17:57:23;21.9;82.4
43414;DHT22;29013;49.676;8.606;2022-09-12T18:02:52;21.9;82.7
43414;DHT22;29013;49.676;8.606;2022-09-12T18:08:14;21.9;83.4
43414;DHT22;29013;49.676;8.606;2022-09-12T18:13:42;21.9;83.9
43414;DHT22;29013;49.676;8.606;2022-09-12T18:19:08;21.7;84.5
43414;DHT22;29013;49.676;8.606;2022-09-12T18:24:35;21.6;84.6
43414;DHT22;29013;49.676;8.606;2022-09-12T18:30:00;21.5;87.4
43414;DHT22;29013;49.676;8.606;2022-09-12T18:35:29;21.4;85.9
43414;DHT22;29013;49.676;8.606;2022-09-12T18:41:01;21.2;86.4
43414;DHT22;29013;49.676;8.606;2022-09-12T18:46:22;21.0;87.0
43414;DHT22;29013;49.676;8.606;2022-09-12T18:51:43;21.0;87.4
43414;DHT22;29013;49.676;8.606;2022-09-12T18:57:09;20.7;88.2
43414;DHT22;29013;49.676;8.606;2022-09-12T19:02:35;20.7;87.9
43414;DHT22;29013;49.676;8.606;2022-09-12T19:07:59;20.4;88.6
43414;DHT22;29013;49.676;8.606;2022-09-12T19:13:24;20.4;88.7
43414;DHT22;29013;49.676;8.606;2022-09-12T19:18:50;20.3;88.5
43414;DHT22;29013;49.676;8.606;2022-09-12T19:24:16;20.2;88.7
43414;DHT22;29013;49.676;8.606;2022-09-12T19:29:41;20.2;88.8
43414;DHT22;29013;49.676;8.606;2022-09-12T19:35:03;20.1;88.3
43414;DHT22;29013;49.676;8.606;2022-09-12T19:40:31;20.1;88.4
43414;DHT22;29013;49.676;8.606;2022-09-12T19:45:57;20.0;89.1
43414;DHT22;29013;49.676;8.606;2022-09-12T19:51:21;20.0;89.2
43414;DHT22;29013;49.676;8.606;2022-09-12T19:56:44;20.0;89.1
43414;DHT22;29013;49.676;8.606;2022-09-12T20:02:12;19.8;89.3
43414;DHT22;29013;49.676;8.606;2022-09-12T20:07:39;19.7;89.8
43414;DHT22;29013;49.676;8.606;2022-09-12T20:13:03;19.5;90.3
43414;DHT22;29013;49.676;8.606;2022-09-12T20:18:29;19.4;90.2
43414;DHT22;29013;49.676;8.606;2022-09-12T20:23:55;19.4;90.3
43414;DHT22;29013;49.676;8.606;2022-09-12T20:29:20;19.4;90.2
43414;DHT22;29013;49.676;8.606;2022-09-12T20:34:47;19.2;90.2
43414;DHT22;29013;49.676;8.606;2022-09-12T20:40:16;19.2;90.1
43414;DHT22;29013;49.676;8.606;2022-09-12T20:45:43;19.2;90.2
43414;DHT22;29013;49.676;8.606;2022-09-12T20:51:08;19.2;90.3
43414;DHT22;29013;49.676;8.606;2022-09-12T20:56:31;19.1;90.2
43414;DHT22;29013;49.676;8.606;2022-09-12T21:01:55;19.0;90.3
43414;DHT22;29013;49.676;8.606;2022-09-12T21:07:20;18.9;90.3
43414;DHT22;29013;49.676;8.606;2022-09-12T21:12:48;18.9;90.5
43414;DHT22;29013;49.676;8.606;2022-09-12T21:18:14;18.9;90.5
43414;DHT22;29013;49.676;8.606;2022-09-12T21:23:42;18.8;90.7
43414;DHT22;29013;49.676;8.606;2022-09-12T21:29:07;18.7;91.2
43414;DHT22;29013;49.676;8.606;2022-09-12T21:34:34;18.7;91.5
43414;DHT22;29013;49.676;8.606;2022-09-12T21:40:00;18.6;92.0
43414;DHT22;29013;49.676;8.606;2022-09-12T21:45:27;18.5;92.1
43414;DHT22;29013;49.676;8.606;2022-09-12T21:50:55;18.4;92.5
43414;DHT22;29013;49.676;8.606;2022-09-12T21:56:23;18.4;92.4
43414;DHT22;29013;49.676;8.606;2022-09-12T22:01:44;18.4;92.3
43414;DHT22;29013;49.676;8.606;2022-09-12T22:07:10;18.4;92.3
43414;DHT22;29013;49.676;8.606;2022-09-12T22:12:37;18.3;92.7
43414;DHT22;29013;49.676;8.606;2022-09-12T22:18:03;18.3;92.5
43414;DHT22;29013;49.676;8.606;2022-09-12T22:23:31;18.3;92.4
43414;DHT22;29013;49.676;8.606;2022-09-12T22:28:59;18.3;92.1
43414;DHT22;29013;49.676;8.606;2022-09-12T22:34:27;18.3;92.0
43414;DHT22;29013;49.676;8.606;2022-09-12T22:39:51;18.3;92.5
43414;DHT22;29013;49.676;8.606;2022-09-12T22:45:19;18.3;92.9
43414;DHT22;29013;49.676;8.606;2022-09-12T22:50:46;18.1;93.3
43414;DHT22;29013;49.676;8.606;2022-09-12T22:56:08;18.1;93.6
43414;DHT22;29013;49.676;8.606;2022-09-12T23:01:30;18.0;94.1
43414;DHT22;29013;49.676;8.606;2022-09-12T23:06:51;17.8;94.2
43414;DHT22;29013;49.676;8.606;2022-09-12T23:12:14;17.7;94.7
43414;DHT22;29013;49.676;8.606;2022-09-12T23:17:36;17.5;95.0
43414;DHT22;29013;49.676;8.606;2022-09-12T23:22:59;17.5;95.5
43414;DHT22;29013;49.676;8.606;2022-09-12T23:28:26;17.4;95.8
43414;DHT22;29013;49.676;8.606;2022-09-12T23:33:55;17.3;96.1
43414;DHT22;29013;49.676;8.606;2022-09-12T23:39:21;17.2;96.2
43414;DHT22;29013;49.676;8.606;2022-09-12T23:44:45;17.0;96.8
43414;DHT22;29013;49.676;8.606;2022-09-12T23:50:10;16.9;96.8
43414;DHT22;29013;49.676;8.606;2022-09-12T23:55:36;16.9;97.3
